• Join FlightAware (Why Join?)
  • Login
  • US Flag 
03:53AM EDT


 

Airport Tracker/Info


-or-


 

Live Flight TrackerFlight Track Log ✈ AAL832 ✈ 24-Apr-2013 ✈ KORD - KMIA

Flight Track Log - Related Links

Times and Time Zones

All times are in EDT time to prevent confusion due to time zone crossing. See the AAL832 flight status page for this flight to view local times or setup timezone preferences in your user account.

Time Position Orientation Groundspeed Altitude Reporting Facility
EDT Latitude Longitude Course Direction KTS MPH feet Rate Location/Type
05:52PM 41.9333 -87.9000 180° South 174 200 2,400  Level Chicago TRACON
05:53PM 41.8667 -87.8833 169° South 258 297 4,700 2,580 Climbing Chicago TRACON
05:54PM 41.6584 -87.7179 166° South  Level Estimated
05:54PM 41.7833 -87.8667 172° South 276 318 7,600  Level Chicago TRACON
05:55PM 41.5506 -87.6555 166° South  Level Estimated
05:56PM 41.4427 -87.5932 180° South  Level Estimated
05:56PM 41.6336 -87.8100 164° South 304 350 13,900  Level Chicago Center
05:57PM 41.3349 -87.5311 180° South  Level Estimated
05:57PM 41.5389 -87.7750 165° South 346 398 16,000  Level Chicago Center
05:58PM 41.4358 -87.7325 163° South 381 438 18,800 2,700 Climbing Chicago Center
05:59PM 41.3283 -87.7264 178° South 387 445 21,600 2,340 Climbing Chicago Center
06:00PM 41.2161 -87.7267 180° South 396 456 23,700 2,040 Climbing Chicago Center
06:01PM 41.1008 -87.7128 175° South 411 473 25,900 1,980 Climbing Chicago Center
06:02PM 40.9828 -87.6961 174° South 426 490 27,900 1,980 Climbing Chicago Center
06:03PM 40.8425 -87.6192 157° South 471 542 30,100 1,800 Climbing Chicago Center
06:04PM 40.7464 -87.4847 133° Southeast 501 577 31,700 1,800 Climbing Chicago Center
06:05PM 40.6508 -87.3492 133° Southeast 508 585 33,900 1,920 Climbing Chicago Center
06:06PM 40.5483 -87.2322 139° Southeast 498 573 35,700 1,500 Climbing Chicago Center
06:07PM 40.4181 -87.1764 162° South 452 520 37,000 600 Climbing Chicago Center
06:08PM 40.2981 -87.1481 170° South 440 506 37,000  Level Chicago Center
06:09PM 40.1783 -87.1144 168° South 439 505 37,000  Level Chicago Center
06:10PM 40.0772 -87.0889 169° South 437 503 37,000  Level Indianapolis Center
06:11PM 39.9600 -87.0578 169° South 431 496 37,000  Level Indianapolis Center
06:12PM 39.8433 -87.0269 169° South 428 493 37,000  Level Indianapolis Center
06:13PM 39.7278 -86.9972 169° South 424 488 37,000  Level Indianapolis Center
06:14PM 39.6122 -86.9683 169° South 423 487 37,000  Level Indianapolis Center
06:15PM 39.4747 -86.9325 169° South 432 497 37,000  Level Indianapolis Center
06:16PM 39.3556 -86.9036 169° South 434 499 37,000  Level Indianapolis Center
06:17PM 39.2347 -86.8717 168° South 439 505 37,000  Level Indianapolis Center
06:18PM 39.1097 -86.8161 161° South 466 536 37,000  Level Indianapolis Center
06:19PM 38.9922 -86.7336 151° Southeast 476 548 37,000  Level Indianapolis Center
06:20PM 38.8739 -86.6539 152° Southeast 477 549 37,000  Level Indianapolis Center
06:21PM 38.7561 -86.5747 152° Southeast 473 544 37,000  Level Indianapolis Center
06:22PM 38.6408 -86.4961 152° Southeast 466 536 37,000  Level Indianapolis Center
06:23PM 38.5261 -86.4186 152° Southeast 461 531 37,000  Level Indianapolis Center
06:24PM 38.4125 -86.3428 152° Southeast 458 527 37,000  Level Indianapolis Center
06:25PM 38.2983 -86.2669 152° Southeast 457 526 37,000  Level Indianapolis Center
06:26PM 38.1631 -86.1781 153° Southeast 452 520 37,000  Level Indianapolis Center
06:27PM 38.0494 -86.1031 153° Southeast 454 522 37,000  Level Indianapolis Center
06:29PM 37.9358 -86.0297 153° Southeast 454 522 37,000  Level Indianapolis Center
06:30PM 37.8214 -85.9553 153° Southeast 459 528 37,000  Level Indianapolis Center
06:31PM 37.7072 -85.8808 153° Southeast 458 527 37,000  Level Indianapolis Center
06:32PM 37.5903 -85.8056 153° Southeast 467 537 37,000  Level Indianapolis Center
06:33PM 37.4725 -85.7286 153° Southeast 472 543 37,000  Level Indianapolis Center
06:34PM 37.3539 -85.6519 153° Southeast 476 548 37,000  Level Indianapolis Center
06:35PM 37.2250 -85.5686 153° Southeast 478 550 37,000  Level Indianapolis Center
06:36PM 37.1053 -85.4922 153° Southeast 478 550 37,000  Level Indianapolis Center
06:37PM 36.9803 -85.4114 153° Southeast 475 547 37,000  Level Indianapolis Center
06:38PM 36.8600 -85.3369 154° Southeast 480 552 37,000  Level Indianapolis Center
06:39PM 36.7189 -85.2467 153° Southeast 474 545 37,000  Level Indianapolis Center
06:40PM 36.6003 -85.1781 155° Southeast 470 541 37,000  Level Indianapolis Center
06:41PM 36.4803 -85.1458 168° South 444 511 37,000  Level Indianapolis Center
06:42PM 36.3606 -85.1161 169° South 439 505 37,000  Level Indianapolis Center
06:43PM 36.2411 -85.0853 168° South 438 504 37,000  Level Indianapolis Center
06:44PM 36.1236 -85.0544 168° South 435 501 37,000  Level Indianapolis Center
06:45PM 36.0500 -85.0378 170° South 443 510 37,000  Level Atlanta Center
06:46PM 35.9336 -85.0081 168° South 431 496 37,000  Level Atlanta Center
06:47PM 35.8044 -84.9733 168° South 431 496 37,000  Level Atlanta Center
06:48PM 35.6836 -84.9464 170° South 436 502 37,000  Level Atlanta Center
06:49PM 35.5669 -84.9144 167° South 436 502 37,000  Level Atlanta Center
06:50PM 35.4483 -84.8853 169° South 436 502 37,000  Level Atlanta Center
06:51PM 35.3317 -84.8558 168° South 436 502 37,000  Level Atlanta Center
06:52PM 35.2131 -84.8267 169° South 430 495 37,000  Level Atlanta Center
06:53PM 35.0922 -84.7953 168° South 430 495 37,000  Level Atlanta Center
06:54PM 34.9733 -84.7664 169° South 435 501 37,000  Level Atlanta Center
06:55PM 34.8544 -84.7375 169° South 435 501 37,000  Level Atlanta Center
06:56PM 34.7378 -84.7086 168° South 430 495 37,000  Level Atlanta Center
06:57PM 34.6358 -84.6775 166° South 425 489 37,000  Level Atlanta Center
06:58PM 34.5192 -84.6514 170° South 423 487 37,000  Level Atlanta Center
06:59PM 34.4044 -84.6228 168° South 429 494 37,000  Level Atlanta Center
07:00PM 34.2856 -84.5944 169° South 429 494 37,000  Level Atlanta Center
07:01PM 34.1731 -84.5661 168° South 429 494 37,000  Level Atlanta Center
07:02PM 34.0375 -84.5350 169° South 441 507 37,000  Level Atlanta Center
07:03PM 33.9228 -84.5069 169° South 441 507 37,000  Level Atlanta Center
07:04PM 33.8019 -84.4814 170° South 441 507 37,000  Level Atlanta Center
07:05PM 33.6831 -84.4508 168° South 436 502 37,000  Level Atlanta Center
07:06PM 33.5786 -84.4153 164° South 436 502 37,000  Level Atlanta Center
07:07PM 33.4619 -84.3675 161° South 441 507 37,000  Level Atlanta Center
07:08PM 33.3431 -84.3172 161° South 446 513 37,000  Level Atlanta Center
07:09PM 33.2242 -84.2672 161° South 446 513 37,000  Level Atlanta Center
07:10PM 33.1075 -84.2175 160° South 446 513 37,000  Level Atlanta Center
07:11PM 32.9883 -84.1700 162° South 446 513 37,000  Level Atlanta Center
07:12PM 32.8717 -84.1206 160° South 446 513 37,000  Level Atlanta Center
07:13PM 32.7528 -84.0733 162° South 446 513 37,000  Level Atlanta Center
07:14PM 32.6233 -84.0217 161° South 446 513 37,000  Level Atlanta Center
07:15PM 32.5042 -83.9697 160° South 446 513 37,000  Level Atlanta Center
07:16PM 32.3831 -83.9208 161° South 446 513 37,000  Level Atlanta Center
07:17PM 32.2661 -83.8719 161° South 446 513 37,000  Level Atlanta Center
07:18PM 32.1214 -83.8125 161° South 447 514 37,000  Level Jacksonville Center
07:19PM 32.0028 -83.7647 161° South 452 520 37,000  Level Jacksonville Center
07:20PM 31.8842 -83.7147 160° South 452 520 37,000  Level Jacksonville Center
07:21PM 31.7611 -83.6622 160° South 457 526 37,000  Level Jacksonville Center
07:22PM 31.6383 -83.6172 163° South 463 533 37,000  Level Jacksonville Center
07:23PM 31.5217 -83.5847 167° South 476 548 37,000  Level Jacksonville Center
07:24PM 31.3986 -83.5547 168° South 470 541 37,000  Level Jacksonville Center
07:25PM 31.2733 -83.5222 167° South 465 535 37,000  Level Jacksonville Center
07:26PM 31.1503 -83.4947 169° South 465 535 37,000  Level Jacksonville Center
07:27PM 31.0253 -83.4647 168° South 465 535 37,000  Level Jacksonville Center
07:28PM 30.9000 -83.4325 168° South 465 535 37,000  Level Jacksonville Center
07:29PM 30.7686 -83.4028 169° South 456 525 37,000  Level Jacksonville Center
07:30PM 30.6436 -83.3731 168° South 451 519 37,000  Level Jacksonville Center
07:31PM 30.5206 -83.3411 167° South 451 519 37,000  Level Jacksonville Center
07:32PM 30.3975 -83.3142 169° South 451 519 37,000  Level Jacksonville Center
07:33PM 30.2742 -83.2847 168° South 451 519 37,000  Level Jacksonville Center
07:34PM 30.1492 -83.2553 168° South 451 519 37,000  Level Jacksonville Center
07:35PM 30.0281 -83.2261 168° South 451 519 37,000  Level Jacksonville Center
07:36PM 29.8986 -83.1992 170° South 456 525 37,000  Level Jacksonville Center
07:37PM 29.7778 -83.1678 167° South 456 525 37,000  Level Jacksonville Center
07:38PM 29.6525 -83.1386 169° South 451 519 37,000  Level Jacksonville Center
07:39PM 29.5294 -83.1097 168° South 450 518 37,000  Level Jacksonville Center
07:40PM 29.4167 -83.0833 168° South 450 518 37,000  Level Jacksonville Center
07:41PM 29.2936 -83.0522 168° South 450 518 37,000  Level Jacksonville Center
07:42PM 29.1661 -83.0211 168° South 456 525 37,000  Level Jacksonville Center
07:43PM 29.0411 -82.9947 170° South 461 531 37,000  Level Jacksonville Center
07:44PM 28.9136 -82.9661 169° South 461 531 37,000  Level Jacksonville Center
07:45PM 28.7886 -82.9353 168° South 466 536 37,000  Level Jacksonville Center
07:47PM 28.5414 -82.8811 169° South 466 536 37,000  Level Miami Center
07:48PM 28.4153 -82.8508 168° South 466 536 37,000  Level Miami Center
07:49PM 28.2894 -82.8206 168° South 466 536 37,000  Level Miami Center
07:50PM 28.1656 -82.7928 169° South 466 536 37,000  Level Miami Center
07:51PM 28.0250 -82.7597 168° South 466 536 37,000  Level Miami Center
07:52PM 27.9094 -82.7278 166° South 466 536 37,000  Level Miami Center
07:53PM 27.7803 -82.6742 160° South 466 536 37,000  Level Miami Center
07:54PM 27.6550 -82.6256 161° South 472 543 37,000  Level Miami Center
07:55PM 27.5344 -82.5633 155° Southeast 482 555 37,000  Level Miami Center
07:56PM 27.4264 -82.4997 152° Southeast 488 562 37,000  Level Miami Center
07:57PM 27.2978 -82.4256 153° Southeast 482 555 37,000  Level Miami Center
07:58PM 27.1750 -82.3589 154° Southeast 482 555 37,000 -60 Level Miami Center
07:59PM 27.0564 -82.2928 154° Southeast 482 555 36,900 -720 Descending Miami Center
08:00PM 26.9483 -82.2294 152° Southeast 482 555 35,600 -1,740 Descending Miami Center
08:01PM 26.8153 -82.1536 153° Southeast 482 555 33,500 -2,100 Descending Miami Center
08:02PM 26.6947 -82.0856 153° Southeast 482 555 31,400 -2,220 Descending Miami Center
08:04PM 26.4511 -81.9447 153° Southeast 482 555 26,900 -1,980 Descending Miami Center
08:05PM 26.3508 -81.8872 153° Southeast 477 549 25,500 -1,920 Descending Miami Center
08:06PM 26.2364 -81.8222 153° Southeast 464 534 23,100 -2,220 Descending Miami Center
08:07PM 26.1431 -81.7372 141° Southeast 457 526 21,100 -2,220 Descending Miami Center
08:08PM 26.1033 -81.6131 110° East 414 476 18,700 -2,400 Descending Miami Center
08:09PM 26.0653 -81.4983 110° East 408 470 16,300 -2,460 Descending Miami Center
08:10PM 26.0292 -81.3858 110° East 390 449 13,800 -2,580 Descending Miami Center
08:11PM 25.9947 -81.2783 110° East 376 433 11,200 -1,920 Descending Miami Center
08:12PM 25.9603 -81.1800 111° Southeast 362 417 10,000 -840 Descending Miami Center
08:12PM 25.9447 -81.1403 114° Southeast 302 348 10,100 120 Climbing Miami Center
08:13PM 25.9331 -81.1053 110° East 293 337 10,100  Level Miami Center
08:14PM 25.9044 -81.0142 109° East 301 346 10,100 -60 Level Miami Center
08:15PM 25.8733 -80.9300 112° Southeast 300 345 10,000 -720 Descending Miami Center
08:16PM 25.8381 -80.8456 115° Southeast 295 339 8,700 -1,260 Descending Miami Center
08:17PM 25.8006 -80.7614 116° Southeast 246 283 7,400 -1,500 Descending Miami Center
08:18PM 25.7750 -80.7028 116° Southeast 228 262 5,700 -1,380 Descending Miami Center
08:19PM 25.7728 -80.6314 92° East 234 269 4,600 -840 Descending Miami Center
08:20PM 25.7764 -80.5714 86° East 214 246 4,000 -540 Descending Miami Center
08:21PM 25.7756 -80.5206 91° East 185 213 3,700 -600 Descending Miami Center
08:22PM 25.7789 -80.4631 86° East 182 209 2,900 -900 Descending Miami Center
08:23PM 25.7800 -80.4192 88° East 151 174 1,900 -960 Descending Miami Center
08:24PM 25.7811 -80.3800 88° East 117 135 1,200 -660 Descending Miami Center
08:25PM 25.7819 -80.3433 89° East 120 138 600 -600 Descending Miami Center